Flight Track Log - Related Links

Times and Time Zones

All times are in EDT time to prevent confusion due to time zone crossing. See the N637P flight status page for this flight to view local times or setup timezone preferences in your user account.

Time Position Orientation Groundspeed Altitude Reporting Facility
EDT Latitude Longitude Course Direction KTS MPH feet Rate Location/Type
Sat 07:25:18 PM 25.9253 -97.4064 347° North 114 131 1,000  Level Houston Center
Sat 07:26:42 PM 25.9706 -97.4181 313° West 132 152 1,700 497 Climbing Houston Center
Sat 07:27:43 PM 25.9964 -97.4492 340° North 133 153 2,200 492 Climbing Houston Center
Sat 07:28:44 PM 26.0292 -97.4625 358° North 130 150 2,700 446 Climbing Houston Center
Sat 07:29:44 PM 26.0647 -97.4642 350° North 134 154 3,100 397 Climbing Houston Center
Sat 07:30:45 PM 26.1000 -97.4708 358° North 131 151 3,500 347 Climbing Houston Center
Sat 07:31:45 PM 26.1417 -97.4728 North 134 154 3,800 397 Climbing Houston Center
Sat 07:32:46 PM 26.1772 -97.4700 North 126 145 4,300 393 Climbing Houston Center
Sat 07:33:47 PM 26.2106 -97.4694 North 123 142 4,600 496 Climbing Houston Center
Sat 07:34:47 PM 26.2439 -97.4689 North 121 139 5,300 694 Climbing Houston Center
Sat 07:35:48 PM 26.2756 -97.4636 13° North 113 130 6,000 744 Climbing Houston Center
Sat 07:36:48 PM 26.3050 -97.4558 North 114 131 6,800 694 Climbing Houston Center
Sat 07:37:49 PM 26.3386 -97.4553 North 113 130 7,400 590 Climbing Houston Center
Sat 07:38:50 PM 26.3719 -97.4544 360° North 113 130 8,000 347 Climbing Houston Center
Sat 07:39:50 PM 26.4094 -97.4542 North 146 168 8,100 50 Climbing Houston Center
Sat 07:40:51 PM 26.4514 -97.4494 360° North 157 181 8,100 -50 Level Houston Center
Sat 07:41:51 PM 26.4972 -97.4494 North 161 185 8,000 -50 Descending Houston Center
Sat 07:42:52 PM 26.5414 -97.4447 North 161 185 8,000  Level Houston Center
Sat 07:43:53 PM 26.5875 -97.4425 357° North 163 188 8,000 50 Level Houston Center
Sat 07:44:53 PM 26.6311 -97.4447 North 161 185 8,100  Climbing Houston Center
Sat 07:45:54 PM 26.6772 -97.4400 360° North 161 185 8,000 -49 Descending Houston Center
Sat 07:46:55 PM 26.7231 -97.4403 355° North 160 184 8,000 50 Level Houston Center
Sat 07:47:55 PM 26.7689 -97.4450 North 165 190 8,100  Climbing Houston Center
Sat 07:48:56 PM 26.8150 -97.4425 North 161 185 8,000 -50 Descending Houston Center
Sat 07:49:56 PM 26.8589 -97.4381 360° North 161 185 8,000  Level Houston Center
Sat 07:50:57 PM 26.9047 -97.4381 358° North 163 188 8,000 49 Level Houston Center
Sat 07:51:58 PM 26.9506 -97.4403 357° North 163 188 8,100 50 Climbing Houston Center
Sat 07:52:58 PM 26.9922 -97.4425 North 160 184 8,100  Level Houston Center
Sat 07:53:59 PM 27.0361 -97.4400 357° North 157 181 8,100 -49 Level Houston Center
Sat 07:55:00 PM 27.0778 -97.4422 357° North 155 178 8,000 -50 Descending Houston Center
Sat 07:56:00 PM 27.1258 -97.4447 360° North 159 183 8,000  Level Houston Center
Sat 07:57:01 PM 27.1675 -97.4447 360° North 160 184 8,000  Level Houston Center
Sat 07:58:01 PM 27.2136 -97.4447 North 156 180 8,000  Level Houston Center
Sat 07:59:02 PM 27.2553 -97.4422 357° North 156 180 8,000  Level Houston Center
Sat 08:00:03 PM 27.2992 -97.4444 352° North 154 177 8,000  Level Houston Center
Sat 08:01:03 PM 27.3447 -97.4517 360° North 154 177 8,000  Level Houston Center
Sat 08:02:04 PM 27.3844 -97.4514 355° North 153 176 8,000  Level Houston Center
Sat 08:03:04 PM 27.4300 -97.4561 346° North 154 177 8,000  Level Houston Center
Sat 08:04:05 PM 27.4714 -97.4678 344° North 156 180 8,000  Level Houston Center
Sat 08:05:06 PM 27.5147 -97.4817 360° North 155 178 8,000  Level Houston Center
Sat 08:06:06 PM 27.5583 -97.4817 North 157 181 8,000  Level Houston Center
Sat 08:07:07 PM 27.6022 -97.4794 355° North 157 181 8,000 50 Level Houston Center
Sat 08:08:07 PM 27.6439 -97.4839 North 157 181 8,100 50 Climbing Houston Center
Sat 08:09:08 PM 27.6919 -97.4817 354° North 158 182 8,100 -50 Level Houston Center
Sat 08:10:08 PM 27.7378 -97.4867 354° North 159 183 8,000 -50 Descending Houston Center
Sat 08:11:09 PM 27.7772 -97.4911 North 156 180 8,000  Level Houston Center
Sat 08:12:10 PM 27.8253 -97.4889 350° North 159 183 8,000  Level Houston Center
Sat 08:13:10 PM 27.8708 -97.4983 357° North 160 184 8,000  Level Houston Center
Sat 08:14:11 PM 27.9144 -97.5008 360° North 163 188 8,000  Level Houston Center
Sat 08:15:12 PM 27.9625 -97.5008 357° North 162 186 8,000  Level Houston Center
Sat 08:16:12 PM 28.0064 -97.5033 350° North 163 188 8,000 50 Level Houston Center
Sat 08:17:13 PM 28.0539 -97.5131 353° North 163 188 8,100 43 Climbing Houston Center
Sat 08:18:30 PM 28.1119 -97.5208 North 192 221 8,100  Level Houston Center
Sat 08:19:29 PM 28.1603 -97.5164 357° North 187 215 8,100 -50 Level Houston Center
Sat 08:20:30 PM 28.2039 -97.5189 358° North 167 192 8,000 -50 Descending Houston Center
Sat 08:21:30 PM 28.2497 -97.5211 357° North 162 186 8,000  Level Houston Center
Sat 08:22:30 PM 28.2933 -97.5236 352° North 162 186 8,000  Level Houston Center
Sat 08:23:30 PM 28.3411 -97.5308 352° North 157 181 8,000  Level Houston Center
Sat 08:24:29 PM 28.3847 -97.5381 360° North 157 181 8,000 50 Level Houston Center
Sat 08:25:29 PM 28.4306 -97.5383 360° North 157 181 8,100 50 Climbing Houston Center
Sat 08:26:29 PM 28.4744 -97.5383 357° North 157 181 8,100 -50 Level Houston Center
Sat 08:27:30 PM 28.5222 -97.5408 357° North 157 181 8,000 -50 Descending Houston Center
Sat 08:28:29 PM 28.5681 -97.5433 355° North 157 181 8,000  Level Houston Center
Sat 08:29:30 PM 28.6139 -97.5483 357° North 157 181 8,000  Level Houston Center
Sat 08:30:30 PM 28.6617 -97.5508 357° North 157 181 8,000 50 Level Houston Center
Sat 08:31:30 PM 28.7094 -97.5536 357° North 157 181 8,100 50 Climbing Houston Center
Sat 08:32:30 PM 28.7533 -97.5561 357° North 157 181 8,100  Level Houston Center
Sat 08:33:30 PM 28.8011 -97.5586 354° North 157 181 8,100  Level Houston Center
Sat 08:34:30 PM 28.8406 -97.5633 355° North 166 191 8,100  Level Houston Center
Sat 08:35:30 PM 28.8883 -97.5683 352° North 166 191 8,100  Level Houston Center
Sat 08:36:30 PM 28.9339 -97.5756 357° North 166 191 8,100  Level Houston Center
Sat 08:37:30 PM 28.9797 -97.5781 357° North 160 184 8,100 -50 Level Houston Center
Sat 08:38:30 PM 29.0297 -97.5811 355° North 160 184 8,000 -50 Descending Houston Center
Sat 08:39:30 PM 29.0756 -97.5858 355° North 160 184 8,000 50 Level Houston Center
Sat 08:40:30 PM 29.1211 -97.5908 357° North 160 184 8,100 50 Climbing Houston Center
Sat 08:41:29 PM 29.1692 -97.5936 355° North 160 184 8,100  Level Houston Center
Sat 08:42:29 PM 29.2125 -97.5983 359° North 160 184 8,100  Level Houston Center
Sat 08:43:30 PM 29.2628 -97.5989 355° North 160 184 8,100  Level Houston Center
Sat 08:44:30 PM 29.3106 -97.6039 359° North 160 184 8,100  Level Houston Center
Sat 08:45:30 PM 29.3583 -97.6044 357° North 160 184 8,100 -50 Level Houston Center
Sat 08:46:30 PM 29.4083 -97.6072 North 160 184 8,000 -50 Descending Houston Center
Sat 08:47:29 PM 29.4564 -97.6053 357° North 165 190 8,000  Level Houston Center
Sat 08:48:29 PM 29.5044 -97.6078 352° North 165 190 8,000  Level Houston Center
Sat 08:49:30 PM 29.5519 -97.6153 355° North 165 190 8,000 50 Level Houston Center
Sat 08:50:30 PM 29.5978 -97.6203 355° North 165 190 8,100 50 Climbing Houston Center
Sat 08:51:29 PM 29.6475 -97.6256 352° North 165 190 8,100  Level Houston Center
Sat 08:52:30 PM 29.6953 -97.6331 North 165 190 8,100  Level Houston Center
Sat 08:53:30 PM 29.7411 -97.6311 12° North 165 190 8,100  Level Houston Center
Sat 08:54:30 PM 29.7897 -97.6194 North 160 184 8,100  Level Houston Center
Sat 08:55:30 PM 29.8378 -97.6175 North 160 184 8,100 -200 Level Houston Center
Sat 08:56:30 PM 29.8881 -97.6131 North 173 199 7,700 -454 Descending Houston Center
Sat 08:57:29 PM 29.9425 -97.6092 12° North 184 212 7,200 -504 Descending Houston Center
Sat 08:58:29 PM 29.9889 -97.5975 343° North 184 212 6,700 -500 Descending Houston Center
Sat 09:05:32 PM 30.1833 -97.6667 346° North  Level FlightAware Approximate
Sat 09:06:32 PM 30.2240 -97.6784 166° South  Level Estimated
Sat 09:07:32 PM 30.1833 -97.6667 360° North  Level Estimated
Sat 09:08:32 PM 30.1833 -97.6667 346° North  Level FlightAware Approximate
Sat 09:09:32 PM 30.2240 -97.6784 166° South  Level Estimated
Sat 09:10:32 PM 30.1833 -97.6667 346° North  Level FlightAware Approximate
Sat 09:11:32 PM 30.2240 -97.6784 166° South  Level Estimated
Sat 09:12:32 PM 30.1833 -97.6667 346° North  Level FlightAware Approximate
Sat 09:13:32 PM 30.2240 -97.6784 346° North  Level Estimated

Login

Don't have an account? Register now (free) for customized features, flight alerts, and more!